Westland, MI (48186)

11:01 PM EDT on August 24, 2016 (GMT -0400)
APRSWXNET | | Change Station

Elev 673 ft 42.30 °N, 83.40 °W | Updated 22 minutes ago

Scattered Clouds
Scattered Clouds
74 °F
Feels Like 71 °F
N
0
Wind Variable Wind from SSW
Gusts 1.0 mph

Today
High -- | Low -- °F
--% Chance of Precip.
Yesterday
High -- | Low -- °F
Precip. -- in
Pressure 29.95 in
Visibility 8.0 miles
Clouds Few 2500 ft
Scattered Clouds 5000 ft
Scattered Clouds 13000 ft
Heat Index 71 °F
Dew Point 72 °F
Humidity 95%
Rainfall in
Snow Depth Not available.
6:50 AM 8:19 PM
Waning Gibbous, 50% visible
METAR KDTW 250253Z 20004KT 8SM FEW025 SCT050 SCT130 24/23 A2996 RMK AO2 SLP142 OCNL LTGIC DSNT SE CB DSNT SE MOV E 60000 T02440228 58005 $
Pressure 29.95 in
Visibility 8.0 miles
Clouds Few 2500 ft
Scattered Clouds 5000 ft
Scattered Clouds 13000 ft
Heat Index 71 °F
Dew Point 72 °F
Humidity 95%
Rainfall in
Snow Depth Not available.
6:50 AM 8:19 PM
Waning Gibbous, 50% visible
METAR KDTW 250253Z 20004KT 8SM FEW025 SCT050 SCT130 24/23 A2996 RMK AO2 SLP142 OCNL LTGIC DSNT SE CB DSNT SE MOV E 60000 T02440228 58005 $

10-Day Weather Forecast

Almanac

Astronomy

Aug. 24, 2016 Rise Set
Actual Time
Civil Twilight
Nautical Twilight
Astronomical Twilight
Moon
Length of Visible Light
Length of Day
Tomorrow will be .
, % of the Moon is Illuminated

Today's Extremes

State Highs State Lows

Community

WunderPhotos

Upload Photos

1,934,787 photos uploaded!

WunderBlog® & News

Nearby

Air Quality

  Air Quality AQ Index Pollutant
Not available.

Snow Depth

Station Depth Elevation

Earthquake Activity

City Distance Mag. Time & Date
Minimum magnitude displayed is 2.5.

Coastal Water Temperatures

Place Temperature

Stations

Nearby Weather Stations

Station Location Temp. Windchill Dew Point Humidity Wind Precip. Elev Updated Type
                   

Watches & Warnings

There are currently no watches in effect.